sensor_id;sensor_type;location;lat;lon;timestamp;P1;durP1;ratioP1;P2;durP2;ratioP2
36009;SDS011;22076;52.182;5.404;2022-11-15T00:01:20;52.35;;;23.48;;
36009;SDS011;22076;52.182;5.404;2022-11-15T00:03:50;62.58;;;25.52;;
36009;SDS011;22076;52.182;5.404;2022-11-15T00:06:16;49.92;;;23.15;;
36009;SDS011;22076;52.182;5.404;2022-11-15T00:08:43;66.13;;;26.50;;
36009;SDS011;22076;52.182;5.404;2022-11-15T00:11:10;59.78;;;25.42;;
36009;SDS011;22076;52.182;5.404;2022-11-15T00:13:38;45.78;;;19.05;;
36009;SDS011;22076;52.182;5.404;2022-11-15T00:16:05;51.03;;;24.35;;
36009;SDS011;22076;52.182;5.404;2022-11-15T00:18:33;56.50;;;24.45;;
36009;SDS011;22076;52.182;5.404;2022-11-15T00:21:02;54.67;;;26.17;;
36009;SDS011;22076;52.182;5.404;2022-11-15T00:23:29;59.55;;;27.15;;
36009;SDS011;22076;52.182;5.404;2022-11-15T00:25:56;38.00;;;16.98;;
36009;SDS011;22076;52.182;5.404;2022-11-15T00:28:23;49.95;;;21.98;;
36009;SDS011;22076;52.182;5.404;2022-11-15T00:30:50;54.47;;;22.40;;
36009;SDS011;22076;52.182;5.404;2022-11-15T00:33:16;56.17;;;24.50;;
36009;SDS011;22076;52.182;5.404;2022-11-15T00:35:45;80.13;;;30.13;;
36009;SDS011;22076;52.182;5.404;2022-11-15T00:38:11;73.82;;;29.73;;
36009;SDS011;22076;52.182;5.404;2022-11-15T00:40:38;61.65;;;24.58;;
36009;SDS011;22076;52.182;5.404;2022-11-15T00:43:04;70.32;;;27.02;;
36009;SDS011;22076;52.182;5.404;2022-11-15T00:45:31;81.50;;;31.40;;
36009;SDS011;22076;52.182;5.404;2022-11-15T00:47:57;51.97;;;21.30;;
36009;SDS011;22076;52.182;5.404;2022-11-15T00:50:24;66.97;;;24.52;;
36009;SDS011;22076;52.182;5.404;2022-11-15T00:52:51;85.45;;;30.73;;
36009;SDS011;22076;52.182;5.404;2022-11-15T00:55:18;53.50;;;23.65;;
36009;SDS011;22076;52.182;5.404;2022-11-15T00:57:45;93.25;;;33.55;;
36009;SDS011;22076;52.182;5.404;2022-11-15T01:00:12;58.38;;;24.17;;
36009;SDS011;22076;52.182;5.404;2022-11-15T01:02:39;60.67;;;25.25;;
36009;SDS011;22076;52.182;5.404;2022-11-15T01:05:05;54.00;;;24.23;;
36009;SDS011;22076;52.182;5.404;2022-11-15T01:07:33;95.25;;;33.63;;
36009;SDS011;22076;52.182;5.404;2022-11-15T01:10:00;76.88;;;30.10;;
36009;SDS011;22076;52.182;5.404;2022-11-15T01:12:27;78.50;;;29.02;;
36009;SDS011;22076;52.182;5.404;2022-11-15T01:14:53;83.60;;;31.17;;
36009;SDS011;22076;52.182;5.404;2022-11-15T01:17:20;80.30;;;31.30;;
36009;SDS011;22076;52.182;5.404;2022-11-15T01:19:46;66.50;;;24.80;;
36009;SDS011;22076;52.182;5.404;2022-11-15T01:22:13;70.80;;;27.77;;
36009;SDS011;22076;52.182;5.404;2022-11-15T01:24:39;87.88;;;33.00;;
36009;SDS011;22076;52.182;5.404;2022-11-15T01:27:07;80.43;;;32.97;;
36009;SDS011;22076;52.182;5.404;2022-11-15T01:29:34;70.95;;;29.33;;
36009;SDS011;22076;52.182;5.404;2022-11-15T01:32:01;81.03;;;30.42;;
36009;SDS011;22076;52.182;5.404;2022-11-15T01:34:27;81.60;;;31.45;;
36009;SDS011;22076;52.182;5.404;2022-11-15T01:36:54;72.82;;;30.60;;
36009;SDS011;22076;52.182;5.404;2022-11-15T01:39:20;78.82;;;30.98;;
36009;SDS011;22076;52.182;5.404;2022-11-15T01:41:47;75.80;;;29.90;;
36009;SDS011;22076;52.182;5.404;2022-11-15T01:47:12;91.90;;;34.92;;
36009;SDS011;22076;52.182;5.404;2022-11-15T01:49:40;87.20;;;32.65;;
36009;SDS011;22076;52.182;5.404;2022-11-15T01:52:12;83.30;;;31.70;;
36009;SDS011;22076;52.182;5.404;2022-11-15T01:54:41;92.10;;;34.80;;
36009;SDS011;22076;52.182;5.404;2022-11-15T01:57:08;84.72;;;36.67;;
36009;SDS011;22076;52.182;5.404;2022-11-15T01:59:36;64.13;;;25.90;;
36009;SDS011;22076;52.182;5.404;2022-11-15T02:02:05;87.78;;;33.15;;
36009;SDS011;22076;52.182;5.404;2022-11-15T02:04:32;107.07;;;39.38;;
36009;SDS011;22076;52.182;5.404;2022-11-15T02:07:01;77.35;;;30.80;;
36009;SDS011;22076;52.182;5.404;2022-11-15T02:09:28;72.88;;;30.58;;
36009;SDS011;22076;52.182;5.404;2022-11-15T02:11:55;67.47;;;26.33;;
36009;SDS011;22076;52.182;5.404;2022-11-15T02:14:22;76.43;;;28.90;;
36009;SDS011;22076;52.182;5.404;2022-11-15T02:16:51;68.55;;;27.55;;
36009;SDS011;22076;52.182;5.404;2022-11-15T02:19:36;86.78;;;32.80;;
36009;SDS011;22076;52.182;5.404;2022-11-15T02:22:14;74.53;;;31.63;;
36009;SDS011;22076;52.182;5.404;2022-11-15T02:24:56;79.72;;;33.63;;
36009;SDS011;22076;52.182;5.404;2022-11-15T02:27:40;89.63;;;37.80;;
36009;SDS011;22076;52.182;5.404;2022-11-15T02:30:30;85.90;;;32.97;;
36009;SDS011;22076;52.182;5.404;2022-11-15T02:33:03;75.75;;;29.33;;
36009;SDS011;22076;52.182;5.404;2022-11-15T02:35:34;66.88;;;26.17;;
36009;SDS011;22076;52.182;5.404;2022-11-15T02:38:08;87.18;;;34.03;;
36009;SDS011;22076;52.182;5.404;2022-11-15T02:40:45;80.18;;;33.08;;
36009;SDS011;22076;52.182;5.404;2022-11-15T02:43:18;93.10;;;34.35;;
36009;SDS011;22076;52.182;5.404;2022-11-15T02:46:09;84.45;;;32.67;;
36009;SDS011;22076;52.182;5.404;2022-11-15T02:48:39;75.32;;;31.13;;
36009;SDS011;22076;52.182;5.404;2022-11-15T02:51:07;83.90;;;35.05;;
36009;SDS011;22076;52.182;5.404;2022-11-15T02:53:34;96.07;;;38.00;;
36009;SDS011;22076;52.182;5.404;2022-11-15T02:56:00;98.07;;;38.10;;
36009;SDS011;22076;52.182;5.404;2022-11-15T03:01:22;80.63;;;30.98;;
36009;SDS011;22076;52.182;5.404;2022-11-15T03:03:59;111.68;;;40.30;;
36009;SDS011;22076;52.182;5.404;2022-11-15T03:06:31;103.85;;;42.13;;
36009;SDS011;22076;52.182;5.404;2022-11-15T03:09:04;77.93;;;31.70;;
36009;SDS011;22076;52.182;5.404;2022-11-15T03:11:35;72.88;;;31.65;;
36009;SDS011;22076;52.182;5.404;2022-11-15T03:14:06;94.03;;;35.85;;
36009;SDS011;22076;52.182;5.404;2022-11-15T03:16:38;82.80;;;32.17;;
36009;SDS011;22076;52.182;5.404;2022-11-15T03:19:10;89.45;;;37.90;;
36009;SDS011;22076;52.182;5.404;2022-11-15T03:21:39;97.20;;;41.88;;
36009;SDS011;22076;52.182;5.404;2022-11-15T03:24:07;83.15;;;32.55;;
36009;SDS011;22076;52.182;5.404;2022-11-15T03:26:34;99.95;;;40.95;;
36009;SDS011;22076;52.182;5.404;2022-11-15T03:29:03;110.40;;;42.03;;
36009;SDS011;22076;52.182;5.404;2022-11-15T03:31:31;126.25;;;45.38;;
36009;SDS011;22076;52.182;5.404;2022-11-15T03:34:15;129.38;;;48.13;;
36009;SDS011;22076;52.182;5.404;2022-11-15T03:36:45;89.70;;;36.10;;
36009;SDS011;22076;52.182;5.404;2022-11-15T03:39:13;118.97;;;43.13;;
36009;SDS011;22076;52.182;5.404;2022-11-15T03:41:41;114.00;;;46.20;;
36009;SDS011;22076;52.182;5.404;2022-11-15T03:44:11;103.05;;;38.72;;
36009;SDS011;22076;52.182;5.404;2022-11-15T03:46:43;115.07;;;40.05;;
36009;SDS011;22076;52.182;5.404;2022-11-15T03:49:15;115.20;;;43.92;;
36009;SDS011;22076;52.182;5.404;2022-11-15T03:51:45;118.70;;;44.42;;
36009;SDS011;22076;52.182;5.404;2022-11-15T03:54:11;121.75;;;41.80;;
36009;SDS011;22076;52.182;5.404;2022-11-15T03:56:38;115.03;;;42.90;;
36009;SDS011;22076;52.182;5.404;2022-11-15T03:59:05;91.32;;;37.15;;
36009;SDS011;22076;52.182;5.404;2022-11-15T04:01:31;96.93;;;39.10;;
36009;SDS011;22076;52.182;5.404;2022-11-15T04:03:58;98.90;;;38.88;;
36009;SDS011;22076;52.182;5.404;2022-11-15T04:06:26;99.60;;;40.30;;
36009;SDS011;22076;52.182;5.404;2022-11-15T04:08:52;81.20;;;35.40;;
36009;SDS011;22076;52.182;5.404;2022-11-15T04:11:19;98.85;;;37.83;;
36009;SDS011;22076;52.182;5.404;2022-11-15T04:13:45;88.43;;;35.70;;
36009;SDS011;22076;52.182;5.404;2022-11-15T04:16:12;107.93;;;44.83;;
36009;SDS011;22076;52.182;5.404;2022-11-15T04:18:38;114.35;;;46.90;;
36009;SDS011;22076;52.182;5.404;2022-11-15T04:21:05;103.68;;;41.60;;
36009;SDS011;22076;52.182;5.404;2022-11-15T04:23:50;82.60;;;35.88;;
36009;SDS011;22076;52.182;5.404;2022-11-15T04:26:34;101.88;;;40.33;;
36009;SDS011;22076;52.182;5.404;2022-11-15T04:29:01;112.07;;;42.40;;
36009;SDS011;22076;52.182;5.404;2022-11-15T04:31:45;97.75;;;37.42;;
36009;SDS011;22076;52.182;5.404;2022-11-15T04:34:11;110.03;;;40.88;;
36009;SDS011;22076;52.182;5.404;2022-11-15T04:36:38;100.28;;;43.83;;
36009;SDS011;22076;52.182;5.404;2022-11-15T04:39:23;100.05;;;37.03;;
36009;SDS011;22076;52.182;5.404;2022-11-15T04:41:50;86.57;;;36.15;;
36009;SDS011;22076;52.182;5.404;2022-11-15T04:44:16;85.95;;;34.15;;
36009;SDS011;22076;52.182;5.404;2022-11-15T04:46:43;94.25;;;40.40;;
36009;SDS011;22076;52.182;5.404;2022-11-15T04:49:09;96.00;;;39.17;;
36009;SDS011;22076;52.182;5.404;2022-11-15T04:51:36;86.85;;;35.90;;
36009;SDS011;22076;52.182;5.404;2022-11-15T04:54:02;114.43;;;45.78;;
36009;SDS011;22076;52.182;5.404;2022-11-15T04:56:30;109.72;;;43.08;;
36009;SDS011;22076;52.182;5.404;2022-11-15T04:58:57;114.20;;;46.55;;
36009;SDS011;22076;52.182;5.404;2022-11-15T05:01:23;105.40;;;42.33;;
36009;SDS011;22076;52.182;5.404;2022-11-15T05:03:50;112.43;;;47.50;;
36009;SDS011;22076;52.182;5.404;2022-11-15T05:06:34;114.65;;;45.83;;
36009;SDS011;22076;52.182;5.404;2022-11-15T05:09:01;100.85;;;41.25;;
36009;SDS011;22076;52.182;5.404;2022-11-15T05:11:27;80.70;;;34.38;;
36009;SDS011;22076;52.182;5.404;2022-11-15T05:13:55;104.22;;;41.03;;
36009;SDS011;22076;52.182;5.404;2022-11-15T05:16:22;119.38;;;45.20;;
36009;SDS011;22076;52.182;5.404;2022-11-15T05:18:50;115.47;;;42.38;;
36009;SDS011;22076;52.182;5.404;2022-11-15T05:21:16;104.80;;;41.85;;
36009;SDS011;22076;52.182;5.404;2022-11-15T05:23:43;119.43;;;47.88;;
36009;SDS011;22076;52.182;5.404;2022-11-15T05:26:10;105.18;;;41.53;;
36009;SDS011;22076;52.182;5.404;2022-11-15T05:28:37;111.85;;;44.03;;
36009;SDS011;22076;52.182;5.404;2022-11-15T05:31:06;125.00;;;46.83;;
36009;SDS011;22076;52.182;5.404;2022-11-15T05:33:34;125.05;;;48.70;;
36009;SDS011;22076;52.182;5.404;2022-11-15T05:36:02;135.77;;;52.25;;
36009;SDS011;22076;52.182;5.404;2022-11-15T05:38:31;117.50;;;42.22;;
36009;SDS011;22076;52.182;5.404;2022-11-15T05:40:58;109.20;;;39.97;;
36009;SDS011;22076;52.182;5.404;2022-11-15T05:43:25;145.32;;;49.45;;
36009;SDS011;22076;52.182;5.404;2022-11-15T05:45:52;123.03;;;46.65;;
36009;SDS011;22076;52.182;5.404;2022-11-15T05:48:20;102.40;;;35.47;;
36009;SDS011;22076;52.182;5.404;2022-11-15T05:50:47;114.65;;;41.95;;
36009;SDS011;22076;52.182;5.404;2022-11-15T05:53:14;135.15;;;47.45;;
36009;SDS011;22076;52.182;5.404;2022-11-15T05:55:42;118.15;;;41.15;;
36009;SDS011;22076;52.182;5.404;2022-11-15T05:58:09;126.20;;;47.13;;
36009;SDS011;22076;52.182;5.404;2022-11-15T06:00:36;80.75;;;31.67;;
36009;SDS011;22076;52.182;5.404;2022-11-15T06:03:02;123.22;;;44.95;;
36009;SDS011;22076;52.182;5.404;2022-11-15T06:05:30;106.25;;;44.60;;
36009;SDS011;22076;52.182;5.404;2022-11-15T06:07:57;122.63;;;44.38;;
36009;SDS011;22076;52.182;5.404;2022-11-15T06:10:24;142.65;;;51.42;;
36009;SDS011;22076;52.182;5.404;2022-11-15T06:12:55;153.88;;;52.60;;
36009;SDS011;22076;52.182;5.404;2022-11-15T06:15:23;132.90;;;48.40;;
36009;SDS011;22076;52.182;5.404;2022-11-15T06:17:49;94.93;;;38.20;;
36009;SDS011;22076;52.182;5.404;2022-11-15T06:20:16;106.18;;;40.35;;
36009;SDS011;22076;52.182;5.404;2022-11-15T06:22:43;110.38;;;40.90;;
36009;SDS011;22076;52.182;5.404;2022-11-15T06:25:10;150.98;;;51.05;;
36009;SDS011;22076;52.182;5.404;2022-11-15T06:27:37;113.68;;;43.42;;
36009;SDS011;22076;52.182;5.404;2022-11-15T06:30:03;87.25;;;33.60;;
36009;SDS011;22076;52.182;5.404;2022-11-15T06:32:30;121.80;;;42.33;;
36009;SDS011;22076;52.182;5.404;2022-11-15T06:34:57;137.75;;;46.25;;
36009;SDS011;22076;52.182;5.404;2022-11-15T06:37:24;153.10;;;54.63;;
36009;SDS011;22076;52.182;5.404;2022-11-15T06:39:52;152.23;;;52.55;;
36009;SDS011;22076;52.182;5.404;2022-11-15T06:42:20;140.90;;;49.92;;
36009;SDS011;22076;52.182;5.404;2022-11-15T06:44:47;162.50;;;53.28;;
36009;SDS011;22076;52.182;5.404;2022-11-15T06:47:13;112.60;;;39.65;;
36009;SDS011;22076;52.182;5.404;2022-11-15T06:49:40;163.90;;;54.42;;
36009;SDS011;22076;52.182;5.404;2022-11-15T06:52:07;153.00;;;51.35;;
36009;SDS011;22076;52.182;5.404;2022-11-15T06:54:33;148.10;;;47.70;;
36009;SDS011;22076;52.182;5.404;2022-11-15T06:57:01;162.63;;;55.47;;
36009;SDS011;22076;52.182;5.404;2022-11-15T06:59:28;132.32;;;45.42;;
36009;SDS011;22076;52.182;5.404;2022-11-15T07:01:54;148.63;;;51.55;;
36009;SDS011;22076;52.182;5.404;2022-11-15T07:04:21;107.20;;;37.95;;
36009;SDS011;22076;52.182;5.404;2022-11-15T07:06:47;122.15;;;43.30;;
36009;SDS011;22076;52.182;5.404;2022-11-15T07:09:14;153.40;;;48.92;;
36009;SDS011;22076;52.182;5.404;2022-11-15T07:11:41;165.30;;;52.10;;
36009;SDS011;22076;52.182;5.404;2022-11-15T07:14:09;171.80;;;55.05;;
36009;SDS011;22076;52.182;5.404;2022-11-15T07:16:35;149.00;;;47.67;;
36009;SDS011;22076;52.182;5.404;2022-11-15T07:19:02;144.68;;;44.13;;
36009;SDS011;22076;52.182;5.404;2022-11-15T07:21:29;159.20;;;51.45;;
36009;SDS011;22076;52.182;5.404;2022-11-15T07:23:55;156.02;;;51.03;;
36009;SDS011;22076;52.182;5.404;2022-11-15T07:26:22;149.38;;;51.42;;
36009;SDS011;22076;52.182;5.404;2022-11-15T07:28:48;141.10;;;46.50;;
36009;SDS011;22076;52.182;5.404;2022-11-15T07:31:16;146.05;;;46.53;;
36009;SDS011;22076;52.182;5.404;2022-11-15T07:33:43;153.00;;;51.00;;
36009;SDS011;22076;52.182;5.404;2022-11-15T07:36:09;146.75;;;51.33;;
36009;SDS011;22076;52.182;5.404;2022-11-15T07:38:36;122.05;;;40.30;;
36009;SDS011;22076;52.182;5.404;2022-11-15T07:41:03;133.05;;;43.47;;
36009;SDS011;22076;52.182;5.404;2022-11-15T07:43:30;162.68;;;51.30;;
36009;SDS011;22076;52.182;5.404;2022-11-15T07:45:58;149.70;;;46.60;;
36009;SDS011;22076;52.182;5.404;2022-11-15T07:48:31;148.40;;;51.08;;
36009;SDS011;22076;52.182;5.404;2022-11-15T07:50:58;142.48;;;45.15;;
36009;SDS011;22076;52.182;5.404;2022-11-15T07:53:24;152.32;;;49.38;;
36009;SDS011;22076;52.182;5.404;2022-11-15T07:55:51;131.88;;;48.35;;
36009;SDS011;22076;52.182;5.404;2022-11-15T07:58:19;102.85;;;37.53;;
36009;SDS011;22076;52.182;5.404;2022-11-15T08:00:46;81.78;;;32.08;;
36009;SDS011;22076;52.182;5.404;2022-11-15T08:03:13;121.78;;;42.65;;
36009;SDS011;22076;52.182;5.404;2022-11-15T08:05:41;118.75;;;41.58;;
36009;SDS011;22076;52.182;5.404;2022-11-15T08:08:09;113.47;;;40.72;;
36009;SDS011;22076;52.182;5.404;2022-11-15T08:10:37;124.93;;;41.60;;
36009;SDS011;22076;52.182;5.404;2022-11-15T08:13:05;93.88;;;33.05;;
36009;SDS011;22076;52.182;5.404;2022-11-15T08:15:33;108.55;;;42.08;;
36009;SDS011;22076;52.182;5.404;2022-11-15T08:18:02;127.35;;;44.83;;
36009;SDS011;22076;52.182;5.404;2022-11-15T08:20:30;118.45;;;40.65;;
36009;SDS011;22076;52.182;5.404;2022-11-15T08:22:58;133.70;;;45.65;;
36009;SDS011;22076;52.182;5.404;2022-11-15T08:25:26;129.43;;;45.13;;
36009;SDS011;22076;52.182;5.404;2022-11-15T08:27:54;120.53;;;39.00;;
36009;SDS011;22076;52.182;5.404;2022-11-15T08:30:21;135.40;;;43.22;;
36009;SDS011;22076;52.182;5.404;2022-11-15T08:32:49;103.35;;;37.88;;
36009;SDS011;22076;52.182;5.404;2022-11-15T08:35:17;111.53;;;38.70;;
36009;SDS011;22076;52.182;5.404;2022-11-15T08:37:44;126.68;;;44.78;;
36009;SDS011;22076;52.182;5.404;2022-11-15T08:40:12;117.95;;;36.60;;
36009;SDS011;22076;52.182;5.404;2022-11-15T08:42:39;122.07;;;42.00;;
36009;SDS011;22076;52.182;5.404;2022-11-15T08:45:06;95.65;;;34.78;;
36009;SDS011;22076;52.182;5.404;2022-11-15T08:47:33;92.57;;;34.53;;
36009;SDS011;22076;52.182;5.404;2022-11-15T08:50:00;92.28;;;34.45;;
36009;SDS011;22076;52.182;5.404;2022-11-15T08:52:27;92.35;;;33.83;;
36009;SDS011;22076;52.182;5.404;2022-11-15T08:54:53;101.93;;;35.53;;
36009;SDS011;22076;52.182;5.404;2022-11-15T08:57:21;97.57;;;35.85;;
36009;SDS011;22076;52.182;5.404;2022-11-15T08:59:48;129.75;;;43.70;;
36009;SDS011;22076;52.182;5.404;2022-11-15T09:02:14;125.03;;;42.05;;
36009;SDS011;22076;52.182;5.404;2022-11-15T09:04:41;95.95;;;34.25;;
36009;SDS011;22076;52.182;5.404;2022-11-15T09:07:08;106.50;;;36.38;;
36009;SDS011;22076;52.182;5.404;2022-11-15T09:09:35;97.32;;;33.92;;
36009;SDS011;22076;52.182;5.404;2022-11-15T09:12:02;103.88;;;37.13;;
36009;SDS011;22076;52.182;5.404;2022-11-15T09:14:30;123.07;;;42.38;;
36009;SDS011;22076;52.182;5.404;2022-11-15T09:16:57;109.40;;;38.67;;
36009;SDS011;22076;52.182;5.404;2022-11-15T09:19:24;100.00;;;39.83;;
36009;SDS011;22076;52.182;5.404;2022-11-15T09:21:50;88.50;;;35.65;;
36009;SDS011;22076;52.182;5.404;2022-11-15T09:24:17;103.30;;;37.47;;
36009;SDS011;22076;52.182;5.404;2022-11-15T09:26:44;102.25;;;37.70;;
36009;SDS011;22076;52.182;5.404;2022-11-15T09:29:10;99.88;;;39.90;;
36009;SDS011;22076;52.182;5.404;2022-11-15T09:31:38;95.97;;;36.40;;
36009;SDS011;22076;52.182;5.404;2022-11-15T09:34:04;103.07;;;38.20;;
36009;SDS011;22076;52.182;5.404;2022-11-15T09:36:31;103.60;;;40.92;;
36009;SDS011;22076;52.182;5.404;2022-11-15T09:38:57;94.97;;;36.80;;
36009;SDS011;22076;52.182;5.404;2022-11-15T09:41:29;77.45;;;31.85;;
36009;SDS011;22076;52.182;5.404;2022-11-15T09:44:04;81.20;;;33.25;;
36009;SDS011;22076;52.182;5.404;2022-11-15T09:46:42;89.28;;;34.88;;
36009;SDS011;22076;52.182;5.404;2022-11-15T09:49:13;58.22;;;25.60;;
36009;SDS011;22076;52.182;5.404;2022-11-15T09:51:41;64.80;;;27.92;;
36009;SDS011;22076;52.182;5.404;2022-11-15T09:54:13;57.92;;;25.33;;
36009;SDS011;22076;52.182;5.404;2022-11-15T09:56:46;63.78;;;28.58;;
36009;SDS011;22076;52.182;5.404;2022-11-15T09:59:19;52.03;;;24.02;;
36009;SDS011;22076;52.182;5.404;2022-11-15T10:01:55;59.30;;;25.42;;
36009;SDS011;22076;52.182;5.404;2022-11-15T10:04:25;50.60;;;24.05;;
36009;SDS011;22076;52.182;5.404;2022-11-15T10:06:53;39.95;;;17.63;;
36009;SDS011;22076;52.182;5.404;2022-11-15T10:09:25;44.80;;;22.13;;
36009;SDS011;22076;52.182;5.404;2022-11-15T10:11:54;38.75;;;21.40;;
36009;SDS011;22076;52.182;5.404;2022-11-15T10:14:21;45.60;;;21.77;;
36009;SDS011;22076;52.182;5.404;2022-11-15T10:16:57;32.40;;;17.70;;
36009;SDS011;22076;52.182;5.404;2022-11-15T10:19:46;33.03;;;18.08;;
36009;SDS011;22076;52.182;5.404;2022-11-15T10:22:24;33.80;;;17.90;;
36009;SDS011;22076;52.182;5.404;2022-11-15T10:27:25;26.00;;;16.13;;
36009;SDS011;22076;52.182;5.404;2022-11-15T10:29:51;26.50;;;13.77;;
36009;SDS011;22076;52.182;5.404;2022-11-15T10:32:20;23.73;;;12.15;;
36009;SDS011;22076;52.182;5.404;2022-11-15T10:34:47;28.17;;;12.50;;
36009;SDS011;22076;52.182;5.404;2022-11-15T10:37:15;16.38;;;10.20;;
36009;SDS011;22076;52.182;5.404;2022-11-15T10:40:02;18.58;;;9.57;;
36009;SDS011;22076;52.182;5.404;2022-11-15T10:42:29;13.00;;;7.35;;
36009;SDS011;22076;52.182;5.404;2022-11-15T10:44:56;15.82;;;7.97;;
36009;SDS011;22076;52.182;5.404;2022-11-15T10:47:28;13.35;;;7.55;;
36009;SDS011;22076;52.182;5.404;2022-11-15T10:52:23;11.85;;;6.97;;
36009;SDS011;22076;52.182;5.404;2022-11-15T10:54:51;14.52;;;6.97;;
36009;SDS011;22076;52.182;5.404;2022-11-15T10:57:20;10.20;;;5.95;;
36009;SDS011;22076;52.182;5.404;2022-11-15T10:59:49;14.68;;;7.03;;
36009;SDS011;22076;52.182;5.404;2022-11-15T11:02:31;12.77;;;5.85;;
36009;SDS011;22076;52.182;5.404;2022-11-15T11:05:02;10.23;;;4.63;;
36009;SDS011;22076;52.182;5.404;2022-11-15T11:07:32;10.73;;;6.25;;
36009;SDS011;22076;52.182;5.404;2022-11-15T11:10:05;10.57;;;5.15;;
36009;SDS011;22076;52.182;5.404;2022-11-15T11:12:44;10.27;;;5.10;;
36009;SDS011;22076;52.182;5.404;2022-11-15T11:15:11;13.20;;;5.63;;
36009;SDS011;22076;52.182;5.404;2022-11-15T11:17:47;11.57;;;6.05;;
36009;SDS011;22076;52.182;5.404;2022-11-15T11:20:20;10.25;;;5.55;;
36009;SDS011;22076;52.182;5.404;2022-11-15T11:22:56;10.10;;;5.53;;
36009;SDS011;22076;52.182;5.404;2022-11-15T11:25:32;9.88;;;5.70;;
36009;SDS011;22076;52.182;5.404;2022-11-15T11:28:14;10.73;;;4.35;;
36009;SDS011;22076;52.182;5.404;2022-11-15T11:30:49;9.05;;;4.45;;
36009;SDS011;22076;52.182;5.404;2022-11-15T11:33:26;9.55;;;4.15;;
36009;SDS011;22076;52.182;5.404;2022-11-15T11:35:59;12.32;;;4.90;;
36009;SDS011;22076;52.182;5.404;2022-11-15T11:38:37;6.63;;;3.80;;
36009;SDS011;22076;52.182;5.404;2022-11-15T11:41:19;9.18;;;4.18;;
36009;SDS011;22076;52.182;5.404;2022-11-15T11:43:52;8.27;;;4.20;;
36009;SDS011;22076;52.182;5.404;2022-11-15T11:49:15;7.50;;;4.28;;
36009;SDS011;22076;52.182;5.404;2022-11-15T11:51:43;6.65;;;3.67;;
36009;SDS011;22076;52.182;5.404;2022-11-15T11:54:14;6.03;;;3.42;;
36009;SDS011;22076;52.182;5.404;2022-11-15T11:56:45;5.60;;;3.42;;
36009;SDS011;22076;52.182;5.404;2022-11-15T11:59:15;8.65;;;3.92;;
36009;SDS011;22076;52.182;5.404;2022-11-15T12:01:49;6.63;;;3.60;;
36009;SDS011;22076;52.182;5.404;2022-11-15T12:04:18;7.13;;;3.85;;
36009;SDS011;22076;52.182;5.404;2022-11-15T12:06:47;5.15;;;3.28;;
36009;SDS011;22076;52.182;5.404;2022-11-15T12:09:17;5.30;;;3.20;;
36009;SDS011;22076;52.182;5.404;2022-11-15T12:11:49;5.80;;;3.20;;
36009;SDS011;22076;52.182;5.404;2022-11-15T12:14:22;5.55;;;2.88;;
36009;SDS011;22076;52.182;5.404;2022-11-15T12:16:52;6.30;;;2.60;;
36009;SDS011;22076;52.182;5.404;2022-11-15T12:19:20;6.53;;;2.97;;
36009;SDS011;22076;52.182;5.404;2022-11-15T12:21:49;7.55;;;2.65;;
36009;SDS011;22076;52.182;5.404;2022-11-15T12:24:20;7.53;;;2.72;;
36009;SDS011;22076;52.182;5.404;2022-11-15T12:26:49;8.40;;;2.95;;
36009;SDS011;22076;52.182;5.404;2022-11-15T12:29:20;5.88;;;2.25;;
36009;SDS011;22076;52.182;5.404;2022-11-15T12:31:50;4.38;;;2.10;;
36009;SDS011;22076;52.182;5.404;2022-11-15T12:34:34;3.67;;;1.75;;
36009;SDS011;22076;52.182;5.404;2022-11-15T12:37:14;4.97;;;1.63;;
36009;SDS011;22076;52.182;5.404;2022-11-15T12:40:31;10.05;;;2.35;;
36009;SDS011;22076;52.182;5.404;2022-11-15T12:46:04;4.15;;;1.33;;
36009;SDS011;22076;52.182;5.404;2022-11-15T12:51:28;7.38;;;1.80;;
36009;SDS011;22076;52.182;5.404;2022-11-15T12:54:52;4.50;;;1.52;;
36009;SDS011;22076;52.182;5.404;2022-11-15T13:03:16;7.00;;;1.75;;
36009;SDS011;22076;52.182;5.404;2022-11-15T13:05:53;3.20;;;1.63;;
36009;SDS011;22076;52.182;5.404;2022-11-15T13:08:35;6.30;;;1.70;;
36009;SDS011;22076;52.182;5.404;2022-11-15T13:14:04;3.30;;;1.60;;
36009;SDS011;22076;52.182;5.404;2022-11-15T13:17:17;3.00;;;1.60;;
36009;SDS011;22076;52.182;5.404;2022-11-15T13:22:53;4.55;;;2.35;;
36009;SDS011;22076;52.182;5.404;2022-11-15T13:28:42;6.93;;;2.10;;
36009;SDS011;22076;52.182;5.404;2022-11-15T13:31:19;8.73;;;2.38;;
36009;SDS011;22076;52.182;5.404;2022-11-15T13:33:59;8.07;;;2.10;;
36009;SDS011;22076;52.182;5.404;2022-11-15T13:36:28;4.40;;;1.45;;
36009;SDS011;22076;52.182;5.404;2022-11-15T13:38:58;10.70;;;1.95;;
36009;SDS011;22076;52.182;5.404;2022-11-15T13:41:27;6.45;;;2.28;;
36009;SDS011;22076;52.182;5.404;2022-11-15T13:43:55;7.18;;;3.00;;
36009;SDS011;22076;52.182;5.404;2022-11-15T13:46:23;6.72;;;2.45;;
36009;SDS011;22076;52.182;5.404;2022-11-15T13:48:51;9.02;;;2.67;;
36009;SDS011;22076;52.182;5.404;2022-11-15T13:51:22;3.90;;;2.42;;
36009;SDS011;22076;52.182;5.404;2022-11-15T13:53:52;3.83;;;2.30;;
36009;SDS011;22076;52.182;5.404;2022-11-15T13:56:21;12.02;;;2.47;;
36009;SDS011;22076;52.182;5.404;2022-11-15T13:58:48;6.50;;;1.90;;
36009;SDS011;22076;52.182;5.404;2022-11-15T14:01:15;8.63;;;2.47;;
36009;SDS011;22076;52.182;5.404;2022-11-15T14:03:49;8.10;;;2.38;;
36009;SDS011;22076;52.182;5.404;2022-11-15T14:06:19;8.32;;;2.17;;
36009;SDS011;22076;52.182;5.404;2022-11-15T14:09:02;4.70;;;2.08;;
36009;SDS011;22076;52.182;5.404;2022-11-15T14:11:31;7.95;;;1.75;;
36009;SDS011;22076;52.182;5.404;2022-11-15T14:14:04;6.07;;;1.88;;
36009;SDS011;22076;52.182;5.404;2022-11-15T14:16:38;7.50;;;2.20;;
36009;SDS011;22076;52.182;5.404;2022-11-15T14:19:06;6.07;;;1.90;;
36009;SDS011;22076;52.182;5.404;2022-11-15T14:21:35;5.43;;;1.95;;
36009;SDS011;22076;52.182;5.404;2022-11-15T14:24:16;4.93;;;1.92;;
36009;SDS011;22076;52.182;5.404;2022-11-15T14:26:43;8.10;;;1.80;;
36009;SDS011;22076;52.182;5.404;2022-11-15T14:29:22;4.50;;;1.95;;
36009;SDS011;22076;52.182;5.404;2022-11-15T14:31:49;6.10;;;2.08;;
36009;SDS011;22076;52.182;5.404;2022-11-15T14:34:15;4.57;;;1.45;;
36009;SDS011;22076;52.182;5.404;2022-11-15T14:36:42;7.57;;;2.05;;
36009;SDS011;22076;52.182;5.404;2022-11-15T14:39:08;8.93;;;2.20;;
36009;SDS011;22076;52.182;5.404;2022-11-15T14:41:36;6.80;;;1.73;;
36009;SDS011;22076;52.182;5.404;2022-11-15T14:44:04;4.47;;;1.83;;
36009;SDS011;22076;52.182;5.404;2022-11-15T14:46:31;4.28;;;1.13;;
36009;SDS011;22076;52.182;5.404;2022-11-15T14:48:57;9.02;;;1.60;;
36009;SDS011;22076;52.182;5.404;2022-11-15T14:51:24;6.15;;;1.90;;
36009;SDS011;22076;52.182;5.404;2022-11-15T14:53:51;7.15;;;2.13;;
36009;SDS011;22076;52.182;5.404;2022-11-15T14:56:18;5.15;;;1.90;;
36009;SDS011;22076;52.182;5.404;2022-11-15T14:58:45;4.75;;;1.95;;
36009;SDS011;22076;52.182;5.404;2022-11-15T15:01:12;4.45;;;1.65;;
36009;SDS011;22076;52.182;5.404;2022-11-15T15:03:40;6.60;;;1.90;;
36009;SDS011;22076;52.182;5.404;2022-11-15T15:06:09;5.22;;;1.63;;
36009;SDS011;22076;52.182;5.404;2022-11-15T15:08:37;6.00;;;1.77;;
36009;SDS011;22076;52.182;5.404;2022-11-15T15:11:06;6.32;;;1.67;;
36009;SDS011;22076;52.182;5.404;2022-11-15T15:13:33;5.03;;;1.52;;